Time;durP1;ratioP1;P1;durP2;ratioP2;P2;SDS_P1;SDS_P2;PMS_P1;PMS_P2;Temp;Humidity;BMP_temperature;BMP_pressure;BME280_temperature;BME280_humidity;BME280_pressure;Samples;Min_cycle;Max_cycle;Signal;HPM_P1;HPM_P2
2024/02/07 00:01:53;;;;;;;7.43;2.55;;;6.60;99.90;;;;;;4990104;28;20608;-78
2024/02/07 00:04:19;;;;;;;5.30;2.88;;;6.60;99.90;;;;;;4986016;28;20026;-77
2024/02/07 00:06:45;;;;;;;3.63;2.60;;;6.60;99.90;;;;;;4987602;28;20453;-77
2024/02/07 00:09:10;;;;;;;7.03;2.53;;;6.60;99.90;;;;;;4989878;28;20600;-77
2024/02/07 00:11:36;;;;;;;6.20;2.42;;;6.60;99.90;;;;;;4987680;28;20034;-76
2024/02/07 00:14:02;;;;;;;6.35;2.45;;;6.60;99.90;;;;;;4986144;28;20391;-77
2024/02/07 00:16:28;;;;;;;6.57;2.60;;;6.60;99.90;;;;;;4982230;28;20037;-75
2024/02/07 00:18:54;;;;;;;7.15;2.55;;;6.70;99.90;;;;;;4969564;28;20026;-77
2024/02/07 00:21:20;;;;;;;6.97;3.28;;;6.70;99.90;;;;;;4990087;28;20037;-76
2024/02/07 00:23:46;;;;;;;5.57;2.50;;;6.60;99.90;;;;;;4987807;28;20058;-77
2024/02/07 00:26:12;;;;;;;4.60;2.28;;;6.70;99.90;;;;;;4986126;28;20112;-77
2024/02/07 00:28:37;;;;;;;4.70;2.33;;;6.70;99.90;;;;;;4976547;28;20050;-77
2024/02/07 00:31:05;;;;;;;5.00;2.90;;;6.60;99.90;;;;;;4983796;28;20053;-77
2024/02/07 00:33:30;;;;;;;8.43;2.88;;;6.60;99.90;;;;;;4987048;28;20122;-77
2024/02/07 00:35:56;;;;;;;3.60;2.17;;;6.60;99.90;;;;;;4987594;28;20209;-77
2024/02/07 00:38:22;;;;;;;5.35;2.55;;;6.60;99.90;;;;;;4983851;28;20034;-77
2024/02/07 00:40:47;;;;;;;6.78;3.15;;;6.60;99.90;;;;;;4980246;28;20027;-77
2024/02/07 00:43:15;;;;;;;4.07;2.60;;;6.70;99.90;;;;;;4983322;28;20352;-76
2024/02/07 00:45:41;;;;;;;5.05;3.00;;;6.80;99.90;;;;;;4977999;28;20509;-77
2024/02/07 00:48:07;;;;;;;4.65;2.40;;;6.80;99.90;;;;;;4983583;28;20078;-77
2024/02/07 00:50:33;;;;;;;4.80;2.40;;;6.80;99.90;;;;;;4985141;28;20038;-76
2024/02/07 00:52:58;;;;;;;4.93;2.70;;;6.80;99.90;;;;;;4969093;28;20054;-77
2024/02/07 00:55:24;;;;;;;4.40;2.40;;;6.80;99.90;;;;;;4972411;28;20530;-77
2024/02/07 00:57:50;;;;;;;7.80;3.65;;;6.80;99.90;;;;;;4984806;28;20081;-77
2024/02/07 01:00:16;;;;;;;7.75;2.90;;;6.80;99.90;;;;;;4980536;28;20034;-77
2024/02/07 01:02:42;;;;;;;5.35;2.78;;;6.80;99.90;;;;;;4984300;28;20034;-77
2024/02/07 01:05:08;;;;;;;9.95;3.78;;;6.90;99.90;;;;;;4982416;28;20585;-77
2024/02/07 01:07:34;;;;;;;7.00;2.42;;;6.90;99.90;;;;;;4985588;28;20052;-78
2024/02/07 01:10:00;;;;;;;8.00;2.67;;;6.90;99.90;;;;;;4982676;28;20113;-75
2024/02/07 01:12:26;;;;;;;4.15;2.22;;;6.90;99.90;;;;;;4979613;28;20475;-76
2024/02/07 01:14:52;;;;;;;4.72;2.22;;;6.90;99.90;;;;;;4982065;28;21031;-77
2024/02/07 01:17:18;;;;;;;5.05;2.40;;;6.90;99.90;;;;;;4981671;28;20022;-77
2024/02/07 01:19:44;;;;;;;9.18;2.58;;;7.00;99.90;;;;;;4985734;28;20030;-77
2024/02/07 01:22:10;;;;;;;5.32;2.60;;;6.90;99.90;;;;;;4979400;28;20050;-77
2024/02/07 01:24:36;;;;;;;6.32;2.20;;;6.90;99.90;;;;;;4999432;28;20038;-77
2024/02/07 01:27:04;;;;;;;4.45;2.30;;;6.90;99.90;;;;;;4983289;28;20142;-76
2024/02/07 01:29:30;;;;;;;5.20;2.20;;;6.90;99.90;;;;;;4981324;28;20065;-76
2024/02/07 01:31:56;;;;;;;6.00;2.75;;;6.90;99.90;;;;;;4981054;28;20166;-76
2024/02/07 01:34:22;;;;;;;4.63;2.20;;;7.00;99.90;;;;;;4983788;28;20117;-76
2024/02/07 01:36:48;;;;;;;3.38;2.40;;;6.90;99.90;;;;;;4978246;28;20553;-77
2024/02/07 01:39:18;;;;;;;6.20;3.17;;;6.90;99.90;;;;;;4975977;28;20030;-77
2024/02/07 01:41:59;;;;;;;2.92;2.17;;;6.90;99.90;;;;;;4992890;28;20065;-77
2024/02/07 01:44:28;;;;;;;5.20;2.55;;;6.80;99.90;;;;;;4978945;28;20037;-76
2024/02/07 01:47:12;;;;;;;4.75;2.45;;;6.90;99.90;;;;;;4986334;28;20039;-77
2024/02/07 01:49:50;;;;;;;4.10;2.55;;;6.80;99.90;;;;;;4983584;28;20026;-77
2024/02/07 01:52:22;;;;;;;4.80;2.45;;;6.90;99.90;;;;;;4969988;28;20038;-77
2024/02/07 01:54:50;;;;;;;5.75;2.30;;;6.90;99.90;;;;;;4983461;28;20077;-76
2024/02/07 01:57:16;;;;;;;4.70;2.33;;;6.80;99.90;;;;;;4983386;28;20076;-77
2024/02/07 01:59:42;;;;;;;3.92;2.17;;;6.90;99.90;;;;;;4976068;28;20437;-77
2024/02/07 02:02:08;;;;;;;6.60;2.05;;;6.80;99.90;;;;;;4993021;28;20097;-75
2024/02/07 02:04:34;;;;;;;4.40;2.97;;;6.80;99.90;;;;;;4980042;28;20093;-76
2024/02/07 02:07:01;;;;;;;3.58;2.33;;;6.80;99.90;;;;;;4982781;28;20038;-77
2024/02/07 02:09:28;;;;;;;3.92;2.20;;;6.80;99.90;;;;;;4979111;28;20038;-77
2024/02/07 02:11:55;;;;;;;4.22;2.78;;;6.80;99.90;;;;;;4991636;28;20096;-78
2024/02/07 02:14:21;;;;;;;7.07;2.72;;;6.80;99.90;;;;;;4992309;28;20054;-77
2024/02/07 02:16:48;;;;;;;4.13;2.35;;;6.80;99.90;;;;;;4992276;28;20049;-77
2024/02/07 02:19:17;;;;;;;5.85;2.65;;;6.80;99.90;;;;;;4992890;28;20454;-76
2024/02/07 02:22:03;;;;;;;4.60;2.47;;;6.80;99.90;;;;;;4991229;28;20038;-77
2024/02/07 02:25:22;;;;;;;3.47;2.65;;;6.80;99.90;;;;;;4985110;28;20050;-77
2024/02/07 02:28:21;;;;;;;5.28;3.15;;;6.80;99.90;;;;;;4982765;28;20030;-78
2024/02/07 02:30:54;;;;;;;6.75;3.17;;;6.80;99.90;;;;;;4987711;28;20489;-78
2024/02/07 02:33:24;;;;;;;8.63;3.40;;;6.80;99.90;;;;;;4992553;28;20576;-77
2024/02/07 02:35:52;;;;;;;8.43;3.20;;;6.80;99.90;;;;;;4991428;28;20073;-77
2024/02/07 02:38:23;;;;;;;6.13;3.08;;;6.80;99.90;;;;;;4993281;28;20026;-77
2024/02/07 02:40:50;;;;;;;6.68;2.90;;;6.80;99.90;;;;;;4986058;28;20019;-77
2024/02/07 02:43:16;;;;;;;7.78;3.38;;;6.80;99.90;;;;;;4986983;28;20038;-77
2024/02/07 02:45:42;;;;;;;8.10;2.65;;;6.80;99.90;;;;;;4986521;28;20559;-77
2024/02/07 02:48:07;;;;;;;5.90;3.10;;;6.90;99.90;;;;;;4988056;28;20039;-77
2024/02/07 02:50:34;;;;;;;5.93;2.65;;;6.90;99.90;;;;;;4989314;28;20034;-77
2024/02/07 02:53:00;;;;;;;5.45;2.83;;;6.80;99.90;;;;;;4976435;28;20031;-77
2024/02/07 02:55:27;;;;;;;6.25;2.70;;;6.90;99.90;;;;;;4989157;28;20494;-77
2024/02/07 02:57:58;;;;;;;8.63;2.30;;;6.90;99.90;;;;;;4991726;28;20164;-78
2024/02/07 03:00:26;;;;;;;4.80;2.80;;;6.90;99.90;;;;;;4985809;28;20039;-77
2024/02/07 03:02:55;;;;;;;5.80;3.00;;;6.90;99.90;;;;;;4982375;28;20124;-77
2024/02/07 03:10:38;;;;;;;9.70;3.20;;;6.90;99.90;;;;;;4991958;28;20030;-77
2024/02/07 03:13:04;;;;;;;8.18;2.97;;;6.90;99.90;;;;;;4992640;28;20061;-78
2024/02/07 03:15:32;;;;;;;6.13;2.80;;;6.90;99.90;;;;;;4992410;28;20014;-78
2024/02/07 03:17:58;;;;;;;4.60;2.63;;;6.90;99.90;;;;;;4985847;28;20034;-78
2024/02/07 03:20:24;;;;;;;5.00;2.90;;;6.90;99.90;;;;;;4979765;28;20823;-78
2024/02/07 03:22:50;;;;;;;5.65;3.10;;;6.90;99.90;;;;;;4987218;28;20027;-78
2024/02/07 03:25:20;;;;;;;7.07;3.25;;;6.90;99.90;;;;;;4979211;28;20027;-78
2024/02/07 03:27:48;;;;;;;5.38;3.45;;;6.90;99.90;;;;;;4988978;28;20105;-78
2024/02/07 03:30:16;;;;;;;9.77;2.78;;;7.00;99.90;;;;;;4984414;28;20552;-78
2024/02/07 03:32:43;;;;;;;4.95;2.60;;;7.00;99.90;;;;;;4983606;28;20018;-78
2024/02/07 03:35:09;;;;;;;4.07;2.65;;;7.00;99.90;;;;;;4984717;28;20045;-78
2024/02/07 03:37:35;;;;;;;6.35;2.50;;;7.00;99.90;;;;;;4973860;28;21464;-78
2024/02/07 03:40:05;;;;;;;5.95;2.75;;;7.00;99.90;;;;;;4983311;28;20379;-78
2024/02/07 03:42:31;;;;;;;4.55;2.67;;;7.00;99.90;;;;;;4982563;28;20042;-78
2024/02/07 03:45:03;;;;;;;6.38;2.65;;;7.00;99.90;;;;;;4983520;28;20058;-78
2024/02/07 03:47:30;;;;;;;10.00;3.17;;;7.00;99.90;;;;;;4989677;28;20042;-78
2024/02/07 03:49:59;;;;;;;6.80;2.80;;;7.00;99.90;;;;;;4990277;28;20177;-78
2024/02/07 03:52:25;;;;;;;6.30;3.03;;;7.00;99.90;;;;;;4990769;28;20038;-77
2024/02/07 03:54:51;;;;;;;4.80;2.45;;;7.00;99.90;;;;;;4986830;28;20034;-77
2024/02/07 03:57:20;;;;;;;7.72;3.20;;;7.00;99.90;;;;;;4987263;28;20479;-77
2024/02/07 03:59:50;;;;;;;7.00;3.00;;;7.00;99.90;;;;;;4993941;28;20018;-78
2024/02/07 04:02:22;;;;;;;5.07;2.78;;;7.10;99.90;;;;;;4989992;28;20091;-78
2024/02/07 04:04:52;;;;;;;6.32;3.03;;;7.10;99.90;;;;;;4990571;28;20031;-77
2024/02/07 04:07:18;;;;;;;5.20;2.85;;;7.10;99.90;;;;;;4983449;28;20517;-77
2024/02/07 04:09:45;;;;;;;4.28;3.00;;;7.10;99.90;;;;;;4983445;28;20034;-77
2024/02/07 05:17:21;;;;;;;9.05;3.70;;;7.20;99.90;;;;;;4984629;28;20035;-77
2024/02/07 05:19:47;;;;;;;6.50;3.00;;;7.20;99.90;;;;;;4980117;28;20031;-78
2024/02/07 05:22:14;;;;;;;8.13;2.72;;;7.20;99.90;;;;;;4989505;28;20585;-77
2024/02/07 05:24:40;;;;;;;7.85;3.28;;;7.20;99.90;;;;;;4994028;28;20379;-77
2024/02/07 05:27:06;;;;;;;3.58;2.60;;;7.20;99.90;;;;;;4991991;28;20039;-77
2024/02/07 05:29:33;;;;;;;8.48;2.92;;;7.20;99.90;;;;;;4993265;28;20495;-77
2024/02/07 05:31:59;;;;;;;11.18;3.40;;;7.20;99.90;;;;;;4993213;28;20050;-77
2024/02/07 05:34:25;;;;;;;7.32;2.97;;;7.20;99.90;;;;;;4992455;28;20173;-77
2024/02/07 05:36:50;;;;;;;6.57;2.70;;;7.20;99.90;;;;;;4987754;28;20047;-77
2024/02/07 05:39:16;;;;;;;6.32;3.03;;;7.20;99.90;;;;;;4981836;28;20081;-77
2024/02/07 05:41:45;;;;;;;7.05;3.10;;;7.20;99.90;;;;;;4993455;28;20027;-77
2024/02/07 05:44:12;;;;;;;4.72;2.67;;;7.20;99.90;;;;;;4987088;28;20045;-77
2024/02/07 05:46:38;;;;;;;10.73;2.95;;;7.20;99.90;;;;;;4984604;28;20038;-77
2024/02/07 05:49:04;;;;;;;9.10;3.42;;;7.20;99.90;;;;;;4976972;28;20023;-77
2024/02/07 05:51:29;;;;;;;6.65;3.15;;;7.20;99.90;;;;;;4984446;28;20027;-77
2024/02/07 05:53:55;;;;;;;9.90;3.10;;;7.30;99.90;;;;;;5007762;23;20658;-74
2024/02/07 05:56:21;;;;;;;5.38;2.65;;;7.30;99.90;;;;;;4968431;28;20085;-76
2024/02/07 05:58:51;;;;;;;7.53;3.35;;;7.30;99.90;;;;;;4971442;28;20022;-76
2024/02/07 06:01:17;;;;;;;6.10;3.50;;;7.30;99.90;;;;;;4971698;28;20031;-76
2024/02/07 06:03:50;;;;;;;8.13;3.97;;;7.30;99.90;;;;;;4971189;28;20046;-76
2024/02/07 06:06:29;;;;;;;7.65;3.20;;;7.30;99.90;;;;;;4951084;29;20035;-76
2024/02/07 06:08:58;;;;;;;6.30;2.95;;;7.30;99.90;;;;;;4949508;28;20036;-75
2024/02/07 06:11:31;;;;;;;13.48;3.58;;;7.30;99.90;;;;;;4950248;28;20070;-75
2024/02/07 06:14:00;;;;;;;9.50;3.38;;;7.30;99.90;;;;;;4947649;28;20070;-75
2024/02/07 06:16:26;;;;;;;6.68;2.63;;;7.30;99.90;;;;;;4951034;29;20755;-75
2024/02/07 06:18:52;;;;;;;10.18;3.65;;;7.30;99.90;;;;;;4951676;28;20038;-75
2024/02/07 06:21:19;;;;;;;9.02;4.22;;;7.20;99.90;;;;;;4951220;28;20019;-72
2024/02/07 06:23:47;;;;;;;8.55;3.67;;;7.30;99.90;;;;;;4951015;28;20110;-74
2024/02/07 06:26:13;;;;;;;6.90;3.13;;;7.40;99.90;;;;;;4950561;28;20046;-76
2024/02/07 06:28:38;;;;;;;6.30;3.38;;;7.30;99.90;;;;;;4933855;29;20035;-76
2024/02/07 06:31:05;;;;;;;6.28;3.40;;;7.30;99.90;;;;;;4934864;29;20054;-75
2024/02/07 06:33:31;;;;;;;6.63;2.83;;;7.30;99.90;;;;;;4950756;28;20043;-76
2024/02/07 06:35:56;;;;;;;5.50;3.05;;;7.30;99.90;;;;;;4950662;28;20034;-76
2024/02/07 06:38:41;;;;;;;10.20;3.35;;;7.30;99.90;;;;;;4951206;29;20474;-76
2024/02/07 06:41:06;;;;;;;5.63;3.50;;;7.40;99.90;;;;;;4949704;28;20032;-75
2024/02/07 06:43:32;;;;;;;6.15;3.60;;;7.30;99.90;;;;;;4950736;28;20050;-75
2024/02/07 06:46:01;;;;;;;4.85;3.05;;;7.30;99.90;;;;;;4949467;29;20126;-74
2024/02/07 06:48:27;;;;;;;7.03;3.50;;;7.30;99.90;;;;;;4948287;28;20054;-76
2024/02/07 06:50:53;;;;;;;11.73;3.55;;;7.40;99.90;;;;;;4948829;28;20471;-75
2024/02/07 06:53:18;;;;;;;9.80;3.30;;;7.40;99.90;;;;;;4951593;28;20046;-76
2024/02/07 06:55:44;;;;;;;8.45;3.10;;;7.40;99.90;;;;;;4951592;28;20039;-76
2024/02/07 06:58:10;;;;;;;13.73;3.60;;;7.30;99.90;;;;;;4948503;29;20031;-76
2024/02/07 07:00:36;;;;;;;9.32;3.38;;;7.30;99.90;;;;;;4942388;29;20044;-76
2024/02/07 07:03:01;;;;;;;7.82;3.72;;;7.30;99.90;;;;;;4944913;29;20047;-76
2024/02/07 07:05:28;;;;;;;7.75;3.15;;;7.40;99.90;;;;;;4943998;28;21125;-75
2024/02/07 07:07:53;;;;;;;6.70;3.35;;;7.30;99.90;;;;;;4944209;29;20585;-76
2024/02/07 07:10:19;;;;;;;5.75;2.95;;;7.40;99.90;;;;;;4948538;28;20031;-76
2024/02/07 07:12:46;;;;;;;7.57;3.35;;;7.40;99.90;;;;;;4944450;28;20137;-76
2024/02/07 07:15:14;;;;;;;5.55;3.35;;;7.30;99.90;;;;;;4949873;28;20109;-76
2024/02/07 07:17:40;;;;;;;7.07;3.22;;;7.30;99.90;;;;;;4946236;28;20023;-75
2024/02/07 07:20:06;;;;;;;7.22;4.03;;;7.30;99.90;;;;;;4943198;29;20122;-75
2024/02/07 07:22:33;;;;;;;8.60;3.55;;;7.30;99.90;;;;;;4949218;28;20035;-75
2024/02/07 07:24:59;;;;;;;6.82;3.15;;;7.30;99.90;;;;;;4950015;28;20407;-76
2024/02/07 07:27:24;;;;;;;7.90;3.85;;;7.30;99.90;;;;;;4950175;29;20495;-76
2024/02/07 07:29:50;;;;;;;8.52;3.85;;;7.30;99.90;;;;;;4949164;28;20107;-75
2024/02/07 07:32:16;;;;;;;11.23;3.72;;;7.30;99.90;;;;;;4945639;29;20555;-75
2024/02/07 07:34:42;;;;;;;8.43;3.80;;;7.30;99.90;;;;;;4949418;29;20027;-75
2024/02/07 07:37:07;;;;;;;9.00;3.90;;;7.30;99.90;;;;;;4949810;28;20023;-76
2024/02/07 07:39:34;;;;;;;6.38;4.03;;;7.20;99.90;;;;;;4950244;28;20031;-76
2024/02/07 07:42:00;;;;;;;15.00;4.00;;;7.20;99.90;;;;;;4950086;29;20020;-76
2024/02/07 07:44:26;;;;;;;7.07;4.40;;;7.20;99.90;;;;;;4947981;29;20121;-76
2024/02/07 07:46:52;;;;;;;9.43;3.85;;;7.10;99.90;;;;;;4950218;29;20039;-77
2024/02/07 07:49:18;;;;;;;9.55;4.05;;;7.10;99.90;;;;;;4949940;29;20094;-76
2024/02/07 07:51:44;;;;;;;7.38;3.65;;;7.10;99.90;;;;;;4948604;29;20062;-77
2024/02/07 07:54:10;;;;;;;8.63;4.30;;;7.10;99.90;;;;;;4950449;29;20050;-76
2024/02/07 07:56:36;;;;;;;8.15;4.72;;;7.10;99.90;;;;;;4949576;28;20031;-75
2024/02/07 07:59:02;;;;;;;6.97;3.97;;;7.00;99.90;;;;;;4950205;28;20039;-75
2024/02/07 08:01:28;;;;;;;10.90;4.35;;;7.00;99.90;;;;;;4950416;28;20043;-76
2024/02/07 08:03:54;;;;;;;10.98;4.80;;;7.00;99.90;;;;;;4948805;29;20059;-76
2024/02/07 08:06:21;;;;;;;10.63;4.18;;;7.10;99.90;;;;;;4943928;28;20043;-75
2024/02/07 08:08:47;;;;;;;9.80;3.88;;;7.00;99.90;;;;;;4952339;28;20050;-77
2024/02/07 08:11:13;;;;;;;8.70;4.20;;;7.00;99.90;;;;;;4952964;28;20031;-76
2024/02/07 08:13:38;;;;;;;6.10;4.30;;;7.00;99.90;;;;;;4953969;29;20046;-75
2024/02/07 08:16:04;;;;;;;5.90;3.80;;;7.00;99.90;;;;;;4949468;28;20065;-76
2024/02/07 08:18:31;;;;;;;9.02;4.10;;;7.00;99.90;;;;;;4948852;29;20179;-77
2024/02/07 08:20:57;;;;;;;8.13;4.30;;;7.00;99.90;;;;;;4947244;29;20118;-77
2024/02/07 08:23:23;;;;;;;10.07;4.18;;;7.00;99.90;;;;;;4946280;28;20551;-76
2024/02/07 08:25:49;;;;;;;6.97;4.00;;;7.00;99.90;;;;;;4944861;28;20166;-77
2024/02/07 08:28:14;;;;;;;6.63;3.92;;;7.00;99.90;;;;;;4950565;29;20117;-77
2024/02/07 08:30:40;;;;;;;8.18;4.20;;;7.00;99.90;;;;;;4946606;28;20057;-76
2024/02/07 08:33:06;;;;;;;8.02;3.80;;;7.00;99.90;;;;;;4950774;28;20051;-76
2024/02/07 08:35:32;;;;;;;6.15;3.80;;;7.00;99.90;;;;;;4943913;29;20051;-76
2024/02/07 08:38:01;;;;;;;7.72;3.85;;;7.00;99.90;;;;;;4947035;29;20417;-77
2024/02/07 08:40:29;;;;;;;6.47;3.80;;;7.00;99.90;;;;;;4945906;28;20461;-76
2024/02/07 08:42:55;;;;;;;8.48;4.38;;;6.90;99.90;;;;;;4951536;28;20133;-77
2024/02/07 08:45:21;;;;;;;9.52;4.07;;;6.90;99.90;;;;;;4948647;29;20489;-76
2024/02/07 08:47:47;;;;;;;8.45;4.38;;;6.90;99.90;;;;;;4949061;28;20047;-76
2024/02/07 08:50:17;;;;;;;7.32;4.22;;;6.90;99.90;;;;;;4941396;28;20051;-76
2024/02/07 08:52:43;;;;;;;7.18;3.92;;;7.00;99.90;;;;;;4945427;29;20050;-76
2024/02/07 08:55:09;;;;;;;8.73;4.00;;;7.00;99.90;;;;;;4942155;29;20878;-76
2024/02/07 08:57:41;;;;;;;9.30;3.90;;;7.00;99.90;;;;;;4952780;28;20074;-76
2024/02/07 09:00:10;;;;;;;7.35;4.07;;;7.00;99.90;;;;;;4953749;28;20491;-76
2024/02/07 09:02:36;;;;;;;5.47;3.92;;;7.00;99.90;;;;;;4952923;28;20055;-76
2024/02/07 09:05:04;;;;;;;5.18;3.92;;;7.00;99.90;;;;;;4952835;29;20404;-76
2024/02/07 09:07:33;;;;;;;5.65;3.70;;;7.00;99.90;;;;;;4949682;29;20531;-76
2024/02/07 09:10:00;;;;;;;5.82;3.78;;;7.10;99.90;;;;;;4942275;28;20051;-76
2024/02/07 09:12:27;;;;;;;9.57;4.13;;;7.10;99.90;;;;;;4944998;28;20131;-76
2024/02/07 09:14:55;;;;;;;7.20;3.70;;;7.00;99.90;;;;;;4948216;29;20742;-76
2024/02/07 09:17:23;;;;;;;8.63;4.40;;;7.00;99.90;;;;;;4945747;28;20050;-75
2024/02/07 09:19:48;;;;;;;6.90;3.95;;;7.00;99.90;;;;;;4951558;28;20035;-76
2024/02/07 09:22:16;;;;;;;7.63;3.85;;;7.00;99.90;;;;;;4951130;29;20102;-76
2024/02/07 09:24:42;;;;;;;8.23;3.90;;;7.00;99.90;;;;;;4951397;28;20122;-76
2024/02/07 09:27:08;;;;;;;5.28;3.75;;;7.00;99.90;;;;;;4948378;28;20122;-77
2024/02/07 09:29:35;;;;;;;6.13;3.92;;;7.00;99.90;;;;;;4951342;28;20114;-77
2024/02/07 09:32:02;;;;;;;6.47;3.78;;;7.00;99.90;;;;;;4951225;28;20039;-76
2024/02/07 09:34:27;;;;;;;6.50;4.05;;;7.00;99.90;;;;;;4952011;28;20031;-76
2024/02/07 09:36:53;;;;;;;7.10;3.80;;;7.00;99.90;;;;;;4951543;28;20446;-76
2024/02/07 09:39:20;;;;;;;7.05;3.90;;;7.00;99.90;;;;;;4943555;29;20023;-76
2024/02/07 09:41:48;;;;;;;6.95;3.75;;;7.00;99.90;;;;;;4950133;29;20043;-76
2024/02/07 09:44:16;;;;;;;8.13;4.07;;;7.00;99.90;;;;;;4952465;28;20508;-76
2024/02/07 09:46:43;;;;;;;4.72;3.22;;;7.00;99.90;;;;;;4948231;29;20072;-76
2024/02/07 09:49:14;;;;;;;5.85;3.38;;;7.00;99.90;;;;;;4947702;28;20110;-76
2024/02/07 09:51:43;;;;;;;6.88;3.90;;;7.10;99.90;;;;;;4948644;29;20058;-76
2024/02/07 09:54:12;;;;;;;6.65;3.80;;;7.10;99.90;;;;;;4951478;29;20047;-76
2024/02/07 09:56:39;;;;;;;8.40;3.80;;;7.10;99.90;;;;;;4952119;28;20452;-76
2024/02/07 09:59:06;;;;;;;6.45;4.00;;;7.10;99.90;;;;;;4952248;28;20040;-76
2024/02/07 10:01:33;;;;;;;6.25;3.95;;;7.10;99.90;;;;;;4948423;28;20063;-76
2024/02/07 10:04:01;;;;;;;4.78;3.80;;;7.00;99.90;;;;;;4949971;29;20558;-76
2024/02/07 10:06:27;;;;;;;7.13;3.97;;;7.10;99.90;;;;;;4951766;29;20126;-76
2024/02/07 10:08:54;;;;;;;5.90;3.67;;;7.00;99.90;;;;;;4951515;28;20131;-76
2024/02/07 10:11:25;;;;;;;6.18;3.92;;;7.00;99.90;;;;;;4951281;29;20031;-76
2024/02/07 10:13:51;;;;;;;7.10;3.85;;;7.00;99.90;;;;;;4951710;29;20093;-76
2024/02/07 10:16:17;;;;;;;9.15;4.50;;;7.00;99.90;;;;;;4963565;28;20491;-75
2024/02/07 10:18:44;;;;;;;8.43;5.18;;;7.00;99.90;;;;;;4947185;28;20114;-75
2024/02/07 10:21:11;;;;;;;7.13;4.13;;;7.00;99.90;;;;;;4947482;28;20118;-76
2024/02/07 10:23:37;;;;;;;5.82;3.53;;;7.00;99.90;;;;;;4948476;28;20399;-76
2024/02/07 10:26:02;;;;;;;5.80;3.80;;;7.00;99.90;;;;;;4951810;29;20042;-76
2024/02/07 10:28:30;;;;;;;7.15;3.95;;;7.00;99.90;;;;;;4951943;28;20038;-76
2024/02/07 10:31:00;;;;;;;7.90;4.05;;;7.00;99.90;;;;;;4949961;28;20042;-76
2024/02/07 10:33:47;;;;;;;8.93;4.25;;;7.00;99.90;;;;;;4951404;29;20391;-76
2024/02/07 10:36:15;;;;;;;6.85;4.05;;;7.00;99.90;;;;;;4950370;28;20415;-75
2024/02/07 10:38:41;;;;;;;9.68;3.92;;;7.00;99.90;;;;;;4949975;28;20062;-76
2024/02/07 10:41:06;;;;;;;5.38;3.92;;;7.10;99.90;;;;;;4950363;28;20480;-76
2024/02/07 10:43:33;;;;;;;6.65;3.55;;;7.10;99.90;;;;;;4950105;28;20073;-75
2024/02/07 10:46:02;;;;;;;5.60;3.40;;;7.10;99.90;;;;;;4950328;28;20039;-76
2024/02/07 10:48:29;;;;;;;5.35;3.53;;;7.10;99.90;;;;;;4950968;29;20046;-76
2024/02/07 10:50:56;;;;;;;6.18;3.70;;;7.20;99.90;;;;;;4950631;29;20086;-76
2024/02/07 10:53:22;;;;;;;6.90;4.38;;;7.20;99.90;;;;;;4947090;28;20054;-76
2024/02/07 10:55:49;;;;;;;5.70;3.53;;;7.20;99.90;;;;;;4950170;28;20047;-77
2024/02/07 10:58:17;;;;;;;6.72;2.95;;;7.30;99.90;;;;;;4950270;29;20491;-76
2024/02/07 11:00:44;;;;;;;6.18;3.30;;;7.30;99.90;;;;;;4951092;29;20113;-76
2024/02/07 11:03:13;;;;;;;6.70;3.47;;;7.30;99.90;;;;;;4950967;29;20031;-76
2024/02/07 11:05:40;;;;;;;5.43;3.53;;;7.20;99.90;;;;;;4946135;28;20046;-76
2024/02/07 11:08:07;;;;;;;7.70;3.88;;;7.30;99.90;;;;;;4951262;28;20023;-76
2024/02/07 11:10:33;;;;;;;7.65;3.65;;;7.20;99.90;;;;;;4950452;28;20479;-76
2024/02/07 11:12:59;;;;;;;8.00;3.67;;;7.20;99.90;;;;;;4944712;28;20110;-77
2024/02/07 11:15:25;;;;;;;5.68;3.88;;;7.30;99.90;;;;;;4948380;29;20380;-77
2024/02/07 11:17:51;;;;;;;6.18;3.47;;;7.20;99.90;;;;;;4946704;28;20039;-77
2024/02/07 11:20:17;;;;;;;6.55;3.97;;;7.20;99.90;;;;;;4947874;29;20039;-77
2024/02/07 11:22:47;;;;;;;9.30;3.78;;;7.20;99.90;;;;;;4948497;28;20031;-77
2024/02/07 11:25:23;;;;;;;7.22;4.03;;;7.20;99.90;;;;;;4945346;28;20031;-77
2024/02/07 11:27:53;;;;;;;7.10;3.78;;;7.20;99.90;;;;;;4948960;28;20106;-77
2024/02/07 11:30:20;;;;;;;6.60;3.58;;;7.20;99.90;;;;;;4946346;29;20450;-77
2024/02/07 11:32:51;;;;;;;5.97;3.90;;;7.20;99.90;;;;;;4947210;28;20117;-77
2024/02/07 11:35:21;;;;;;;8.30;4.00;;;7.20;99.90;;;;;;4946851;28;20182;-77
2024/02/07 11:37:50;;;;;;;7.53;3.70;;;7.30;99.90;;;;;;4948143;28;20032;-77
2024/02/07 11:40:18;;;;;;;5.88;3.63;;;7.30;99.90;;;;;;4949067;28;20026;-77
2024/02/07 11:42:44;;;;;;;6.97;3.83;;;7.30;99.90;;;;;;4950790;28;20031;-77
2024/02/07 11:45:15;;;;;;;7.43;3.90;;;7.20;99.90;;;;;;4952642;29;20031;-78
2024/02/07 11:47:42;;;;;;;6.75;3.85;;;7.30;99.90;;;;;;4950063;28;20042;-77
2024/02/07 11:50:14;;;;;;;5.38;3.30;;;7.20;99.90;;;;;;4953490;28;20031;-77
2024/02/07 11:52:41;;;;;;;7.05;3.70;;;7.20;99.90;;;;;;4948838;29;20050;-78
2024/02/07 11:55:11;;;;;;;10.95;4.00;;;7.30;99.90;;;;;;4977755;23;20042;-77
2024/02/07 11:57:42;;;;;;;5.75;3.72;;;7.30;99.90;;;;;;4986858;28;20382;-77
2024/02/07 12:00:12;;;;;;;5.85;3.92;;;7.30;99.90;;;;;;4994073;28;20681;-78
2024/02/07 12:02:44;;;;;;;5.15;3.33;;;7.30;99.90;;;;;;4994070;28;20037;-78
2024/02/07 12:05:13;;;;;;;6.25;3.67;;;7.30;99.90;;;;;;4993496;28;20053;-78
2024/02/07 12:07:40;;;;;;;8.95;3.33;;;7.30;99.90;;;;;;4988399;28;20030;-78
2024/02/07 12:10:10;;;;;;;5.13;3.30;;;7.30;99.90;;;;;;4996267;28;20398;-78
2024/02/07 12:12:36;;;;;;;7.40;3.58;;;7.30;99.90;;;;;;4992687;28;20129;-78
2024/02/07 12:15:02;;;;;;;8.15;3.58;;;7.40;99.90;;;;;;4973283;28;20039;-78
2024/02/07 12:17:28;;;;;;;3.95;2.90;;;7.30;99.90;;;;;;4992237;28;20026;-78
2024/02/07 12:19:58;;;;;;;7.35;3.20;;;7.40;99.90;;;;;;4993125;28;20038;-78
2024/02/07 12:22:24;;;;;;;4.20;3.15;;;7.40;99.90;;;;;;4991948;28;20034;-79
2024/02/07 12:24:51;;;;;;;7.72;2.95;;;7.40;99.90;;;;;;4976531;28;20057;-78
2024/02/07 12:27:16;;;;;;;4.60;3.47;;;7.50;99.90;;;;;;4993063;28;20049;-79
2024/02/07 12:29:49;;;;;;;5.07;3.28;;;7.50;99.90;;;;;;4992368;28;20034;-77
2024/02/07 12:32:15;;;;;;;6.90;3.13;;;7.50;99.90;;;;;;4990554;28;20451;-77
2024/02/07 12:34:41;;;;;;;4.30;2.85;;;7.60;99.90;;;;;;4992753;28;20030;-78
2024/02/07 12:37:07;;;;;;;4.80;2.97;;;7.60;99.90;;;;;;4987703;28;20113;-78
2024/02/07 12:39:33;;;;;;;5.75;2.60;;;7.60;99.90;;;;;;4989019;28;20053;-78
2024/02/07 12:42:04;;;;;;;6.70;3.35;;;7.60;99.90;;;;;;4994949;28;20438;-77
2024/02/07 12:44:31;;;;;;;7.60;3.10;;;7.60;99.90;;;;;;4992656;28;20656;-78
2024/02/07 12:46:57;;;;;;;6.05;3.10;;;7.60;99.90;;;;;;5005861;28;20044;-78
2024/02/07 12:49:24;;;;;;;5.63;2.78;;;7.60;99.90;;;;;;4996916;28;20021;-77
2024/02/07 12:51:50;;;;;;;6.78;2.67;;;7.50;99.90;;;;;;4990981;28;20034;-78
2024/02/07 12:54:16;;;;;;;5.28;2.75;;;7.50;99.90;;;;;;4994988;28;20053;-78
2024/02/07 12:56:42;;;;;;;3.78;2.25;;;7.50;99.90;;;;;;4991686;28;20038;-78
2024/02/07 12:59:08;;;;;;;5.40;2.80;;;7.50;99.90;;;;;;4975871;28;20042;-78
2024/02/07 13:01:34;;;;;;;4.70;2.42;;;7.50;99.90;;;;;;4992829;28;20401;-78
2024/02/07 13:04:00;;;;;;;3.75;2.60;;;7.50;99.90;;;;;;4971760;28;20038;-77
2024/02/07 13:06:26;;;;;;;5.00;2.40;;;7.50;99.90;;;;;;4994815;28;20121;-78
2024/02/07 13:08:52;;;;;;;2.97;2.45;;;7.40;99.90;;;;;;4988203;28;20471;-78
2024/02/07 13:11:18;;;;;;;5.70;2.38;;;7.50;99.90;;;;;;4988640;28;20042;-78
2024/02/07 13:13:43;;;;;;;2.75;2.10;;;7.50;99.90;;;;;;4991543;28;20030;-78
2024/02/07 13:16:09;;;;;;;3.30;2.00;;;7.50;99.90;;;;;;4989964;28;20030;-79
2024/02/07 13:18:36;;;;;;;4.03;2.47;;;7.50;99.90;;;;;;4990817;28;20734;-78
2024/02/07 13:21:05;;;;;;;5.30;2.70;;;7.50;99.90;;;;;;4990505;28;20045;-78
2024/02/07 13:23:34;;;;;;;5.93;2.10;;;7.50;99.90;;;;;;4991504;28;20038;-78
2024/02/07 13:26:00;;;;;;;4.82;2.35;;;7.50;99.90;;;;;;4986284;28;20035;-77
2024/02/07 13:28:27;;;;;;;5.72;2.53;;;7.50;99.90;;;;;;4991003;28;20037;-77
2024/02/07 13:30:53;;;;;;;4.13;2.42;;;7.50;99.90;;;;;;4985819;28;20080;-77
2024/02/07 13:33:19;;;;;;;3.47;2.72;;;7.50;99.90;;;;;;4994742;28;20129;-77
2024/02/07 13:35:47;;;;;;;6.38;2.05;;;7.60;99.90;;;;;;4992221;28;20121;-77
2024/02/07 13:38:13;;;;;;;4.15;2.25;;;7.60;99.90;;;;;;4993549;28;20561;-77
2024/02/07 13:40:39;;;;;;;4.80;1.90;;;7.60;99.90;;;;;;4999672;28;20134;-77
2024/02/07 13:43:05;;;;;;;3.72;1.90;;;7.50;99.90;;;;;;4994835;28;20045;-77
2024/02/07 13:45:31;;;;;;;4.07;1.95;;;7.50;99.90;;;;;;4993117;28;20121;-77
2024/02/07 13:47:56;;;;;;;3.25;2.03;;;7.50;99.90;;;;;;5000253;28;20121;-78
2024/02/07 13:50:22;;;;;;;4.63;2.15;;;7.50;99.90;;;;;;4995800;28;20512;-77
2024/02/07 13:52:48;;;;;;;2.67;1.83;;;7.50;99.90;;;;;;5001105;28;20065;-77
2024/02/07 13:55:14;;;;;;;2.35;1.88;;;7.50;99.90;;;;;;4994629;28;20035;-77
2024/02/07 13:57:39;;;;;;;3.15;2.00;;;7.50;99.90;;;;;;4994379;28;20034;-77
2024/02/07 14:00:06;;;;;;;5.03;2.30;;;7.50;99.90;;;;;;4994590;28;20045;-77
2024/02/07 14:02:32;;;;;;;2.85;2.22;;;7.50;99.90;;;;;;4995026;28;20058;-78
2024/02/07 14:04:57;;;;;;;3.55;2.00;;;7.50;99.90;;;;;;4992436;28;20046;-78
2024/02/07 14:07:25;;;;;;;3.40;2.00;;;7.40;99.90;;;;;;4993392;28;20050;-78
2024/02/07 14:09:50;;;;;;;2.58;2.10;;;7.40;99.90;;;;;;5000008;28;20128;-77